Terminal Aerodrome Forecast
Issued by NWS

Home | Current Version | Previous Version | Text Only | Print | Product List | Glossary On
Versions: 1 2 3 4 5 6 7 8 9 10 11 12 13 14 15 16 17 18 19 20 21 22 23 24 25
825
FTUS41 KGYX 191127
TAFLEB
TAF
KLEB 191127Z 1912/2012 00000KT P6SM BKN012 OVC035
      TEMPO 1912/1915 SCT015 OVC035
     FM191500 VRB03KT P6SM SCT015 BKN040
     FM191800 07005KT P6SM BKN045 BKN120
     FM200000 VRB03KT P6SM -SHRA OVC030=

USA.gov is the U.S. government's official web portal to all federal, state and local government web resources and services.